Time;durP1;ratioP1;P1;durP2;ratioP2;P2;SDS_P1;SDS_P2;PMS_P1;PMS_P2;Temp;Humidity;BMP_temperature;BMP_pressure;BME280_temperature;BME280_humidity;BME280_pressure;Samples;Min_cycle;Max_cycle;Signal;HPM_P1;HPM_P2
2022/02/19 00:00:31;;;;;;;;;;;6.80;90.70;;;;;;6163305;23;19916;-76
2022/02/19 00:03:00;;;;;;;;;;;6.80;90.70;;;;;;6171926;23;19955;-77
2022/02/19 00:05:27;;;;;;;;;;;6.80;90.70;;;;;;6169316;23;20333;-78
2022/02/19 00:07:55;;;;;;;;;;;6.80;90.70;;;;;;6175506;23;19916;-76
2022/02/19 00:10:23;;;;;;;;;;;6.80;90.70;;;;;;6197757;23;19916;-76
2022/02/19 00:12:49;;;;;;;;;;;6.80;90.80;;;;;;6177825;23;20309;-77
2022/02/19 00:15:19;;;;;;;;;;;6.80;90.80;;;;;;6175378;23;20412;-78
2022/02/19 00:17:46;;;;;;;;;;;6.80;90.90;;;;;;6174001;23;19940;-77
2022/02/19 00:20:14;;;;;;;;;;;6.80;90.90;;;;;;6171327;23;19916;-76
2022/02/19 00:22:41;;;;;;;;;;;6.80;91.00;;;;;;6167399;23;19916;-76
2022/02/19 00:25:09;;;;;;;;;;;6.90;91.10;;;;;;6198488;23;19920;-78
2022/02/19 00:27:37;;;;;;;;;;;6.90;91.10;;;;;;6195333;23;20005;-77
2022/02/19 00:30:05;;;;;;;;;;;6.80;91.10;;;;;;6164838;23;20356;-76
2022/02/19 00:32:32;;;;;;;;;;;6.80;91.30;;;;;;6189561;23;19916;-78
2022/02/19 00:35:00;;;;;;;;;;;6.80;91.40;;;;;;6165236;23;20391;-76
2022/02/19 00:37:27;;;;;;;;;;;6.80;91.40;;;;;;6169408;23;19923;-76
2022/02/19 00:39:55;;;;;;;;;;;6.80;91.40;;;;;;6165001;23;19923;-76
2022/02/19 00:42:21;;;;;;;;;;;6.80;91.50;;;;;;6190089;23;19923;-77
2022/02/19 00:44:54;;;;;;;;;;;6.80;91.50;;;;;;6168733;23;19916;-77
2022/02/19 00:47:28;;;;;;;;;;;6.80;91.50;;;;;;6166397;23;19967;-76
2022/02/19 00:49:56;;;;;;;;;;;6.80;91.50;;;;;;6169729;23;19916;-78
2022/02/19 00:52:23;;;;;;;;;;;6.80;91.60;;;;;;6175587;23;19916;-76
2022/02/19 00:54:52;;;;;;;;;;;6.80;91.60;;;;;;6163816;23;19943;-78
2022/02/19 00:57:19;;;;;;;;;;;6.80;91.60;;;;;;6170619;23;19916;-76
2022/02/19 00:59:46;;;;;;;;;;;6.80;91.60;;;;;;6171850;23;19938;-76
2022/02/19 01:02:14;;;;;;;;;;;6.80;91.60;;;;;;6198150;23;19916;-79
2022/02/19 01:04:42;;;;;;;;;;;6.80;91.60;;;;;;6169237;23;19916;-76
2022/02/19 01:07:11;;;;;;;;;;;6.80;91.70;;;;;;6176588;23;19924;-76
2022/02/19 01:09:40;;;;;;;;;;;6.70;91.70;;;;;;6198365;23;19947;-77
2022/02/19 01:12:09;;;;;;;;;;;6.70;91.90;;;;;;6194231;23;19916;-76
2022/02/19 01:14:35;;;;;;;;;;;6.70;91.80;;;;;;6194104;23;20352;-77
2022/02/19 01:17:02;;;;;;;;;;;6.70;91.80;;;;;;6177498;23;19916;-77
2022/02/19 01:19:29;;;;;;;;;;;6.70;91.70;;;;;;6167716;23;20364;-76
2022/02/19 01:21:57;;;;;;;;;;;6.70;91.60;;;;;;6174639;23;19939;-77
2022/02/19 01:24:23;;;;;;;;;;;6.70;91.60;;;;;;6170695;23;19963;-76
2022/02/19 01:26:51;;;;;;;;;;;6.70;91.50;;;;;;6175393;23;19927;-76
2022/02/19 01:29:17;;;;;;;;;;;6.70;91.50;;;;;;6170404;23;19916;-76
2022/02/19 01:31:44;;;;;;;;;;;6.70;91.40;;;;;;6172033;23;19916;-76
2022/02/19 01:34:11;;;;;;;;;;;6.70;91.40;;;;;;6168864;23;19916;-77
2022/02/19 01:36:43;;;;;;;;;;;6.70;91.50;;;;;;6189817;23;20305;-78
2022/02/19 01:39:10;;;;;;;;;;;6.80;91.50;;;;;;6193115;23;19920;-78
2022/02/19 01:41:47;;;;;;;;;;;6.80;91.40;;;;;;6143613;23;19987;-78
2022/02/19 01:44:15;;;;;;;;;;;6.80;91.30;;;;;;6199361;23;19916;-77
2022/02/19 01:46:41;;;;;;;;;;;6.80;91.20;;;;;;6171889;23;19916;-77
2022/02/19 01:49:08;;;;;;;;;;;6.80;91.30;;;;;;6166699;23;19926;-76
2022/02/19 01:51:36;;;;;;;;;;;6.80;91.30;;;;;;6174606;23;19920;-76
2022/02/19 01:54:03;;;;;;;;;;;6.80;91.10;;;;;;6174580;23;19917;-76
2022/02/19 01:56:30;;;;;;;;;;;6.80;91.30;;;;;;6175523;23;19920;-76
2022/02/19 01:58:57;;;;;;;;;;;6.80;91.30;;;;;;6161952;23;20172;-76
2022/02/19 02:01:24;;;;;;;;;;;6.80;91.40;;;;;;6198674;23;19943;-76
2022/02/19 02:03:51;;;;;;;;;;;6.80;91.30;;;;;;6197068;23;19916;-76
2022/02/19 02:06:19;;;;;;;;;;;6.80;91.30;;;;;;6201680;23;19922;-77
2022/02/19 02:08:48;;;;;;;;;;;6.80;91.40;;;;;;6168806;23;19916;-77
2022/02/19 02:11:16;;;;;;;;;;;6.80;91.30;;;;;;6165665;23;20338;-78
2022/02/19 02:13:43;;;;;;;;;;;6.80;91.20;;;;;;6194897;23;19939;-76
2022/02/19 02:16:10;;;;;;;;;;;6.80;91.10;;;;;;6167946;23;19920;-76
2022/02/19 02:18:38;;;;;;;;;;;6.80;91.20;;;;;;6189438;23;19923;-78
2022/02/19 02:21:12;;;;;;;;;;;6.70;91.20;;;;;;6150248;23;20008;-77
2022/02/19 02:23:39;;;;;;;;;;;6.80;91.30;;;;;;6146110;23;19979;-76
2022/02/19 02:26:06;;;;;;;;;;;6.70;91.50;;;;;;6170821;23;19920;-76
2022/02/19 02:28:32;;;;;;;;;;;6.70;91.70;;;;;;6174720;23;19943;-77
2022/02/19 02:31:05;;;;;;;;;;;6.60;91.90;;;;;;6171927;23;19940;-77
2022/02/19 02:33:36;;;;;;;;;;;6.60;92.00;;;;;;6166910;23;20028;-77
2022/02/19 02:36:03;;;;;;;;;;;6.60;92.00;;;;;;6175338;23;19916;-76
2022/02/19 02:38:30;;;;;;;;;;;6.60;91.80;;;;;;6168806;23;19920;-77
2022/02/19 02:40:56;;;;;;;;;;;6.60;91.90;;;;;;6199654;23;19971;-76
2022/02/19 02:43:23;;;;;;;;;;;6.60;91.90;;;;;;6197999;23;20334;-76
2022/02/19 02:45:51;;;;;;;;;;;6.70;91.90;;;;;;6197173;23;19920;-78
2022/02/19 02:48:21;;;;;;;;;;;6.70;91.90;;;;;;6163839;23;19916;-76
2022/02/19 02:50:48;;;;;;;;;;;6.70;91.80;;;;;;6172875;23;20257;-76
2022/02/19 02:53:35;;;;;;;;;;;6.70;91.80;;;;;;6186837;23;19920;-77
2022/02/19 02:56:02;;;;;;;;;;;6.80;91.70;;;;;;6176459;23;20393;-76
2022/02/19 02:58:28;;;;;;;;;;;6.80;91.70;;;;;;6170216;23;20333;-76
2022/02/19 03:00:58;;;;;;;;;;;6.80;91.60;;;;;;6174019;23;20388;-77
2022/02/19 03:03:25;;;;;;;;;;;6.80;91.60;;;;;;6187791;23;19923;-76
2022/02/19 03:05:52;;;;;;;;;;;6.80;91.50;;;;;;6173943;23;19916;-76
2022/02/19 03:08:19;;;;;;;;;;;6.90;91.50;;;;;;6203824;23;19936;-76
2022/02/19 03:10:45;;;;;;;;;;;6.80;91.70;;;;;;6166267;23;19916;-76
2022/02/19 03:13:13;;;;;;;;;;;6.80;91.80;;;;;;6164735;23;19967;-76
2022/02/19 03:15:40;;;;;;;;;;;6.80;91.60;;;;;;6200347;23;19923;-76
2022/02/19 03:18:07;;;;;;;;;;;6.80;91.90;;;;;;6162979;23;20252;-78
2022/02/19 03:20:39;;;;;;;;;;;6.80;91.90;;;;;;6169562;23;19916;-78
2022/02/19 03:23:06;;;;;;;;;;;6.80;91.70;;;;;;6195868;23;19920;-76
2022/02/19 03:25:37;;;;;;;;;;;6.80;91.60;;;;;;6171731;23;19916;-78
2022/02/19 03:28:04;;;;;;;;;;;6.80;91.50;;;;;;6170536;23;19978;-77
2022/02/19 03:30:31;;;;;;;;;;;6.80;91.50;;;;;;6181659;23;19966;-76
2022/02/19 03:33:00;;;;;;;;;;;6.80;91.50;;;;;;6161574;23;20300;-78
2022/02/19 03:35:27;;;;;;;;;;;6.80;91.70;;;;;;6177764;23;19939;-76
2022/02/19 03:37:53;;;;;;;;;;;6.70;91.90;;;;;;6193246;23;19916;-76
2022/02/19 03:40:20;;;;;;;;;;;6.70;91.70;;;;;;6172557;23;19916;-76
2022/02/19 03:42:47;;;;;;;;;;;6.70;91.60;;;;;;6166248;23;19923;-76
2022/02/19 03:45:14;;;;;;;;;;;6.70;91.60;;;;;;6177414;23;19916;-76
2022/02/19 03:47:43;;;;;;;;;;;6.70;91.70;;;;;;6197558;23;19916;-78
2022/02/19 03:50:15;;;;;;;;;;;6.70;91.60;;;;;;6203828;23;19932;-77
2022/02/19 03:52:42;;;;;;;;;;;6.70;91.70;;;;;;6170004;23;19963;-76
2022/02/19 03:55:09;;;;;;;;;;;6.70;91.80;;;;;;6168243;23;20270;-76
2022/02/19 03:57:37;;;;;;;;;;;6.70;91.80;;;;;;6171875;23;19916;-78
2022/02/19 04:00:06;;;;;;;;;;;6.70;92.10;;;;;;6195419;23;19920;-76
2022/02/19 04:02:33;;;;;;;;;;;6.60;92.20;;;;;;6172787;23;19916;-76
2022/02/19 04:05:00;;;;;;;;;;;6.60;92.20;;;;;;6196832;23;19931;-76
2022/02/19 04:07:27;;;;;;;;;;;6.60;92.40;;;;;;6177333;23;19923;-76
2022/02/19 04:09:53;;;;;;;;;;;6.50;92.50;;;;;;6205094;23;19916;-76
2022/02/19 04:12:22;;;;;;;;;;;6.50;92.40;;;;;;6171405;23;19943;-77
2022/02/19 04:14:49;;;;;;;;;;;6.60;92.20;;;;;;6189312;23;19952;-77
2022/02/19 04:17:16;;;;;;;;;;;6.60;92.20;;;;;;6165058;23;19920;-76
2022/02/19 04:19:43;;;;;;;;;;;6.60;92.20;;;;;;6174890;23;19962;-77
2022/02/19 04:22:10;;;;;;;;;;;6.60;92.10;;;;;;6186858;23;19927;-77
2022/02/19 04:24:42;;;;;;;;;;;6.60;92.60;;;;;;6198658;23;19916;-78
2022/02/19 04:27:10;;;;;;;;;;;6.60;92.10;;;;;;6192579;23;19927;-77
2022/02/19 04:29:37;;;;;;;;;;;6.60;92.00;;;;;;6169841;23;19916;-78
2022/02/19 04:32:04;;;;;;;;;;;6.60;92.10;;;;;;6179444;23;19960;-76
2022/02/19 04:34:30;;;;;;;;;;;6.60;91.90;;;;;;6191825;23;19924;-76
2022/02/19 04:36:57;;;;;;;;;;;6.60;91.80;;;;;;6200744;23;19900;-78
2022/02/19 04:39:25;;;;;;;;;;;6.60;91.80;;;;;;6198777;23;19900;-77
2022/02/19 04:41:52;;;;;;;;;;;6.60;91.80;;;;;;6146231;23;19916;-77
2022/02/19 04:44:21;;;;;;;;;;;6.60;92.00;;;;;;6200767;23;19928;-77
2022/02/19 04:46:48;;;;;;;;;;;6.50;92.40;;;;;;6177736;23;20234;-76
2022/02/19 04:49:15;;;;;;;;;;;6.60;92.10;;;;;;6167737;23;19943;-76
2022/02/19 04:51:42;;;;;;;;;;;6.60;92.10;;;;;;6173584;23;19916;-76
2022/02/19 04:54:09;;;;;;;;;;;6.60;92.00;;;;;;6203473;23;19923;-79
2022/02/19 04:56:36;;;;;;;;;;;6.60;92.00;;;;;;6195232;23;19920;-76
2022/02/19 04:59:03;;;;;;;;;;;6.50;92.00;;;;;;6177977;23;19916;-76
2022/02/19 05:01:32;;;;;;;;;;;6.60;91.90;;;;;;6195166;23;19916;-78
2022/02/19 05:04:01;;;;;;;;;;;6.60;91.90;;;;;;6140714;23;19923;-76
2022/02/19 05:06:27;;;;;;;;;;;6.60;92.10;;;;;;6204270;23;19916;-76
2022/02/19 05:08:54;;;;;;;;;;;6.60;92.00;;;;;;6189869;23;19920;-76
2022/02/19 05:11:22;;;;;;;;;;;6.60;91.90;;;;;;6166915;23;19916;-77
2022/02/19 05:13:49;;;;;;;;;;;6.60;91.80;;;;;;6199171;23;19978;-77
2022/02/19 05:16:15;;;;;;;;;;;6.60;91.80;;;;;;6197353;23;19923;-76
2022/02/19 05:18:47;;;;;;;;;;;6.60;91.70;;;;;;6165055;23;19936;-76
2022/02/19 05:21:13;;;;;;;;;;;6.60;91.80;;;;;;6193993;23;19917;-77
2022/02/19 05:23:45;;;;;;;;;;;6.60;91.80;;;;;;6164298;23;19970;-78
2022/02/19 05:26:12;;;;;;;;;;;6.60;91.80;;;;;;6172265;23;19916;-77
2022/02/19 05:28:41;;;;;;;;;;;6.60;91.80;;;;;;6173167;23;19920;-78
2022/02/19 05:31:08;;;;;;;;;;;6.50;91.70;;;;;;6190659;23;19939;-78
2022/02/19 05:33:35;;;;;;;;;;;6.50;91.70;;;;;;6147800;23;19920;-76
2022/02/19 05:36:02;;;;;;;;;;;6.50;91.80;;;;;;6163967;23;19916;-76
2022/02/19 05:38:28;;;;;;;;;;;6.50;91.90;;;;;;6164736;23;19916;-76
2022/02/19 05:40:56;;;;;;;;;;;6.50;91.90;;;;;;6168261;23;19920;-76
2022/02/19 05:43:23;;;;;;;;;;;6.50;91.80;;;;;;6195905;23;19916;-78
2022/02/19 05:45:53;;;;;;;;;;;6.50;91.70;;;;;;6144014;23;20317;-78
2022/02/19 05:48:20;;;;;;;;;;;6.40;91.70;;;;;;6196152;23;19971;-76
2022/02/19 05:50:47;;;;;;;;;;;6.40;91.80;;;;;;6197067;23;20285;-78
2022/02/19 05:53:14;;;;;;;;;;;6.40;92.00;;;;;;6164648;23;19975;-78
2022/02/19 05:55:43;;;;;;;;;;;6.40;92.00;;;;;;6166399;23;19931;-77
2022/02/19 05:58:10;;;;;;;;;;;6.40;91.90;;;;;;6166771;23;19943;-76
2022/02/19 06:00:36;;;;;;;;;;;6.50;92.00;;;;;;6175491;23;19920;-76
2022/02/19 06:03:04;;;;;;;;;;;6.40;92.10;;;;;;6192044;23;19916;-76
2022/02/19 06:05:30;;;;;;;;;;;6.40;92.10;;;;;;6191407;23;19923;-76
2022/02/19 06:07:57;;;;;;;;;;;6.40;92.00;;;;;;6170725;23;19916;-76
2022/02/19 06:10:24;;;;;;;;;;;6.40;92.00;;;;;;6163880;23;19916;-76
2022/02/19 06:12:51;;;;;;;;;;;6.50;92.30;;;;;;6191660;23;19922;-76
2022/02/19 06:15:18;;;;;;;;;;;6.50;92.60;;;;;;6171238;23;19966;-76
2022/02/19 06:17:45;;;;;;;;;;;6.40;92.50;;;;;;6172353;23;19966;-77
2022/02/19 06:20:12;;;;;;;;;;;6.40;92.50;;;;;;6197071;23;19922;-76
2022/02/19 06:22:39;;;;;;;;;;;6.40;92.30;;;;;;6189052;23;19916;-76
2022/02/19 06:25:07;;;;;;;;;;;6.30;92.30;;;;;;6178355;23;20251;-78
2022/02/19 06:27:43;;;;;;;;;;;6.30;92.30;;;;;;6195493;23;19916;-76
2022/02/19 06:30:15;;;;;;;;;;;6.30;92.20;;;;;;6195169;23;19927;-78
2022/02/19 06:32:42;;;;;;;;;;;6.30;92.10;;;;;;6172104;23;20341;-78
2022/02/19 06:35:12;;;;;;;;;;;6.40;92.20;;;;;;6166973;23;20330;-76
2022/02/19 06:37:43;;;;;;;;;;;6.40;92.10;;;;;;6172193;23;19904;-77
2022/02/19 06:40:12;;;;;;;;;;;6.40;92.30;;;;;;6165608;23;19974;-78
2022/02/19 06:42:39;;;;;;;;;;;6.40;92.30;;;;;;6149297;23;19917;-76
2022/02/19 06:45:07;;;;;;;;;;;6.40;92.10;;;;;;6193406;23;19991;-77
2022/02/19 06:47:35;;;;;;;;;;;6.40;92.10;;;;;;6171067;23;20018;-78
2022/02/19 06:50:03;;;;;;;;;;;6.40;92.10;;;;;;6172156;23;19916;-77
2022/02/19 06:52:30;;;;;;;;;;;6.50;92.10;;;;;;6194355;23;19916;-76
2022/02/19 06:54:56;;;;;;;;;;;6.50;92.30;;;;;;6178900;23;19916;-76
2022/02/19 06:57:23;;;;;;;;;;;6.40;92.10;;;;;;6174092;23;19916;-76
2022/02/19 06:59:51;;;;;;;;;;;6.50;92.10;;;;;;6170040;23;19970;-76
2022/02/19 07:02:18;;;;;;;;;;;6.50;92.20;;;;;;6194908;23;19963;-75
2022/02/19 07:04:46;;;;;;;;;;;6.50;92.10;;;;;;6165894;23;19920;-77
2022/02/19 07:07:13;;;;;;;;;;;6.50;92.00;;;;;;6192691;23;19916;-77
2022/02/19 07:09:40;;;;;;;;;;;6.50;92.00;;;;;;6193840;23;19927;-78
2022/02/19 07:12:07;;;;;;;;;;;6.50;91.90;;;;;;6171655;23;20269;-76
2022/02/19 07:14:35;;;;;;;;;;;6.60;92.00;;;;;;6170595;23;19916;-78
2022/02/19 07:17:04;;;;;;;;;;;6.60;91.90;;;;;;6175084;23;19920;-76
2022/02/19 07:19:32;;;;;;;;;;;6.60;92.00;;;;;;6197761;23;19959;-76
2022/02/19 07:21:59;;;;;;;;;;;6.60;92.00;;;;;;6178133;23;19939;-77
2022/02/19 07:24:26;;;;;;;;;;;6.60;92.00;;;;;;6171071;23;19916;-77
2022/02/19 07:26:55;;;;;;;;;;;6.70;92.00;;;;;;6194347;23;19916;-78
2022/02/19 07:29:24;;;;;;;;;;;6.70;92.10;;;;;;6167737;23;20338;-76
2022/02/19 07:31:51;;;;;;;;;;;6.70;92.00;;;;;;6187580;23;19920;-77
2022/02/19 07:34:18;;;;;;;;;;;6.70;91.90;;;;;;6187699;23;19975;-77
2022/02/19 07:36:45;;;;;;;;;;;6.70;92.10;;;;;;6168047;23;20432;-76
2022/02/19 07:39:13;;;;;;;;;;;6.70;92.20;;;;;;6165471;23;19916;-78
2022/02/19 07:41:41;;;;;;;;;;;6.70;92.10;;;;;;6166000;23;19943;-77
2022/02/19 07:44:07;;;;;;;;;;;6.70;92.00;;;;;;6200134;23;19939;-77
2022/02/19 07:46:34;;;;;;;;;;;6.70;91.90;;;;;;6190486;23;19920;-77
2022/02/19 07:58:18;;;;;;;;;;;6.80;92.00;;;;;;6167281;23;19924;-76
2022/02/19 08:00:04;;;;;;;;;;;6.80;92.00;;;;;;6205859;23;19916;-76
2022/02/19 08:02:31;;;;;;;;;;;6.70;92.40;;;;;;6168617;23;19924;-77
2022/02/19 08:04:58;;;;;;;;;;;6.70;92.40;;;;;;6166024;23;19916;-77
2022/02/19 08:07:25;;;;;;;;;;;6.70;92.30;;;;;;6193448;23;19974;-75
2022/02/19 08:09:52;;;;;;;;;;;6.70;92.40;;;;;;6197662;23;19916;-77
2022/02/19 08:12:18;;;;;;;;;;;6.70;92.40;;;;;;6166608;23;19916;-76
2022/02/19 08:14:45;;;;;;;;;;;6.80;92.30;;;;;;6195778;23;19927;-78
2022/02/19 08:17:12;;;;;;;;;;;6.80;92.10;;;;;;6195811;23;19923;-78
2022/02/19 08:19:39;;;;;;;;;;;6.90;92.00;;;;;;6169190;23;20288;-76
2022/02/19 08:22:06;;;;;;;;;;;6.90;91.90;;;;;;6164605;23;19940;-77
2022/02/19 08:24:33;;;;;;;;;;;7.00;92.00;;;;;;6197304;23;20334;-76
2022/02/19 08:27:02;;;;;;;;;;;7.20;92.00;;;;;;6170046;23;19917;-78
2022/02/19 08:29:29;;;;;;;;;;;7.30;91.90;;;;;;6172050;23;19916;-78
2022/02/19 08:31:56;;;;;;;;;;;7.40;91.50;;;;;;6170581;23;19916;-76
2022/02/19 08:34:23;;;;;;;;;;;7.50;91.30;;;;;;6174329;23;19916;-77
2022/02/19 08:36:55;;;;;;;;;;;7.60;91.00;;;;;;6169003;23;20428;-76
2022/02/19 08:39:23;;;;;;;;;;;7.70;90.80;;;;;;6164036;23;19920;-76
2022/02/19 08:41:51;;;;;;;;;;;7.80;90.60;;;;;;6191132;23;19920;-75
2022/02/19 08:44:18;;;;;;;;;;;7.80;90.50;;;;;;6191910;23;19916;-75
2022/02/19 08:46:45;;;;;;;;;;;7.80;90.40;;;;;;6170960;23;19920;-77
2022/02/19 08:49:12;;;;;;;;;;;7.90;90.50;;;;;;6172095;23;20283;-77
2022/02/19 08:51:38;;;;;;;;;;;8.00;90.50;;;;;;6157137;23;19966;-76
2022/02/19 08:54:05;;;;;;;;;;;8.00;90.30;;;;;;6170797;23;19927;-77
2022/02/19 08:56:32;;;;;;;;;;;8.10;90.20;;;;;;6175731;23;19916;-76
2022/02/19 08:58:59;;;;;;;131.75;63.03;;;8.10;90.10;;;;;;6199999;23;19927;-77
2022/02/19 09:01:27;;;;;;;128.43;64.65;;;8.20;90.10;;;;;;6190474;23;20109;-76
2022/02/19 09:03:56;;;;;;;125.53;65.63;;;8.20;90.00;;;;;;6191669;23;20017;-77
2022/02/19 09:06:24;;;;;;;120.80;62.25;;;8.30;89.90;;;;;;6190041;23;20067;-79
2022/02/19 09:08:51;;;;;;;120.47;65.18;;;8.40;89.80;;;;;;6195219;23;20029;-79
2022/02/19 09:11:18;;;;;;;133.63;66.57;;;8.60;89.30;;;;;;6189725;23;20463;-77
2022/02/19 09:13:47;;;;;;;127.72;66.75;;;8.80;88.20;;;;;;6195515;23;20036;-77
2022/02/19 09:16:14;;;;;;;142.98;87.88;;;9.10;88.20;;;;;;6195398;23;20380;-76
2022/02/19 09:18:41;;;;;;;136.98;87.03;;;9.40;86.00;;;;;;6165232;23;20451;-78
2022/02/19 09:21:08;;;;;;;129.38;83.32;;;9.70;85.40;;;;;;6187766;23;20452;-76
2022/02/19 09:23:36;;;;;;;129.85;82.40;;;9.90;83.70;;;;;;6189003;23;20710;-78
2022/02/19 09:26:04;;;;;;;134.70;86.90;;;10.10;83.10;;;;;;6189327;23;20371;-77
2022/02/19 09:28:32;;;;;;;135.32;87.07;;;10.20;83.20;;;;;;6190892;23;20403;-79
2022/02/19 09:31:00;;;;;;;132.80;84.67;;;10.20;80.70;;;;;;6165599;23;20360;-77
2022/02/19 09:33:27;;;;;;;122.35;79.65;;;10.20;81.70;;;;;;6193761;23;20738;-77
2022/02/19 09:35:54;;;;;;;125.43;81.15;;;10.40;80.90;;;;;;6190593;23;20365;-77
2022/02/19 09:38:22;;;;;;;117.90;76.57;;;10.50;79.80;;;;;;6197472;23;20376;-76
2022/02/19 09:40:49;;;;;;;114.50;75.25;;;10.60;79.90;;;;;;6194700;23;20444;-79
2022/02/19 09:43:17;;;;;;;107.28;71.30;;;10.80;78.60;;;;;;6195914;23;20448;-78
2022/02/19 09:45:48;;;;;;;100.75;66.75;;;11.10;77.90;;;;;;6172130;23;20353;-79
2022/02/19 09:48:17;;;;;;;106.45;67.85;;;11.30;76.80;;;;;;6195548;23;20717;-76
2022/02/19 09:50:45;;;;;;;102.28;68.13;;;11.50;76.20;;;;;;6169396;23;20360;-77
2022/02/19 09:53:12;;;;;;;104.47;67.93;;;11.70;75.10;;;;;;6193360;23;20741;-75
2022/02/19 09:55:39;;;;;;;100.10;66.75;;;11.70;73.90;;;;;;6188993;23;20690;-76
2022/02/19 09:58:06;;;;;;;95.40;64.78;;;11.70;74.00;;;;;;6159903;23;20659;-77
2022/02/19 10:00:46;;;;;;;99.25;65.60;;;11.80;73.70;;;;;;6192463;23;20671;-77
2022/02/19 10:03:24;;;;;;;89.68;61.70;;;11.90;73.90;;;;;;6192690;23;20415;-77
2022/02/19 10:05:52;;;;;;;89.22;61.28;;;11.90;73.40;;;;;;6170382;23;20376;-78
2022/02/19 10:08:20;;;;;;;90.25;62.58;;;12.00;73.30;;;;;;6160901;23;20361;-78
2022/02/19 10:10:53;;;;;;;96.03;61.90;;;12.10;73.30;;;;;;6164053;23;20380;-78
2022/02/19 10:13:46;;;;;;;86.55;59.10;;;12.20;71.00;;;;;;6170185;23;20826;-78
2022/02/19 10:16:13;;;;;;;76.43;53.05;;;12.30;71.60;;;;;;6192374;23;20372;-78
2022/02/19 10:18:44;;;;;;;81.10;55.83;;;12.40;71.20;;;;;;6191233;23;20384;-75
2022/02/19 10:21:20;;;;;;;76.18;53.53;;;12.60;70.60;;;;;;6187737;23;20368;-79
2022/02/19 10:23:56;;;;;;;74.28;52.88;;;12.60;69.10;;;;;;6191015;23;20384;-78
2022/02/19 10:26:30;;;;;;;71.55;49.30;;;12.70;70.20;;;;;;6190927;23;20360;-78
2022/02/19 10:29:03;;;;;;;69.88;49.65;;;12.80;69.40;;;;;;6194210;23;20361;-76
2022/02/19 10:31:31;;;;;;;69.73;49.27;;;13.00;69.70;;;;;;6162787;23;20718;-79
2022/02/19 10:34:10;;;;;;;;;;;13.00;68.70;;;;;;6192249;23;20064;-77
2022/02/19 10:36:45;;;;;;;;;;;13.00;68.80;;;;;;6190529;23;19916;-78
2022/02/19 10:39:12;;;;;;;;;;;13.00;69.10;;;;;;6188747;23;20368;-77
2022/02/19 10:41:39;;;;;;;;;;;13.10;68.30;;;;;;6159837;23;19916;-77
2022/02/19 10:44:26;;;;;;;;;;;13.10;67.80;;;;;;6195237;23;19916;-79
2022/02/19 10:46:55;;;;;;;;;;;13.30;68.20;;;;;;6188694;23;20292;-79
2022/02/19 10:49:22;;;;;;;;;;;13.30;68.60;;;;;;6190253;23;19924;-77
2022/02/19 10:51:49;;;;;;;;;;;13.40;68.00;;;;;;6188725;23;19923;-77
2022/02/19 10:54:22;;;;;;;;;;;13.60;67.50;;;;;;6186866;23;19924;-76
2022/02/19 10:56:50;;;;;;;;;;;13.60;67.30;;;;;;6162953;23;19916;-78
2022/02/19 10:59:29;;;;;;;;;;;13.80;67.60;;;;;;6140039;23;20357;-79
2022/02/19 11:01:57;;;;;;;;;;;13.90;66.60;;;;;;6160336;23;19979;-79
2022/02/19 11:04:24;;;;;;;;;;;13.80;67.00;;;;;;6160384;23;19923;-78
2022/02/19 11:06:52;;;;;;;;;;;13.90;67.20;;;;;;6164865;23;19920;-75
2022/02/19 11:09:20;;;;;;;;;;;13.90;66.30;;;;;;6200474;23;20399;-78
2022/02/19 11:11:47;;;;;;;;;;;13.90;67.10;;;;;;6159495;23;19916;-78
2022/02/19 11:14:14;;;;;;;;;;;14.00;66.20;;;;;;6192150;23;19920;-76
2022/02/19 11:16:41;;;;;;;;;;;13.90;66.20;;;;;;6195095;23;19924;-79
2022/02/19 11:19:13;;;;;;;;;;;14.10;66.90;;;;;;6167724;23;19923;-78
2022/02/19 11:21:40;;;;;;;;;;;14.00;66.10;;;;;;6165766;23;19920;-78
2022/02/19 11:24:09;;;;;;;;;;;14.10;65.70;;;;;;6195608;23;19916;-76
2022/02/19 11:26:36;;;;;;;;;;;14.10;66.30;;;;;;6167535;23;19927;-76
2022/02/19 11:29:04;;;;;;;;;;;14.10;66.00;;;;;;6170917;23;19916;-78
2022/02/19 11:31:33;;;;;;;;;;;14.10;65.70;;;;;;6169904;23;20097;-79
2022/02/19 11:34:02;;;;;;;;;;;14.10;65.60;;;;;;6191024;23;19927;-79
2022/02/19 11:36:31;;;;;;;;;;;14.10;66.00;;;;;;6163740;23;19987;-79
2022/02/19 11:38:58;;;;;;;;;;;14.20;67.00;;;;;;6164832;23;19923;-79
2022/02/19 11:41:45;;;;;;;;;;;14.30;65.30;;;;;;6164118;23;19916;-79
2022/02/19 11:44:15;;;;;;;;;;;14.40;65.20;;;;;;6157206;23;19967;-76
2022/02/19 11:46:43;;;;;;;;;;;14.50;65.00;;;;;;6164908;23;19931;-77
2022/02/19 11:49:15;;;;;;;;;;;14.60;64.60;;;;;;6187777;23;19920;-79
2022/02/19 11:51:42;;;;;;;;;;;14.60;64.90;;;;;;6163488;23;19924;-79
2022/02/19 11:54:30;;;;;;;;;;;14.80;64.00;;;;;;6165388;23;20226;-79
2022/02/19 11:56:58;;;;;;;;;;;15.00;63.00;;;;;;6161110;23;19917;-77
2022/02/19 11:59:39;;;;;;;;;;;15.10;62.70;;;;;;6163335;23;19967;-78
2022/02/19 12:02:18;;;;;;;;;;;15.20;62.50;;;;;;6164165;23;19923;-76
2022/02/19 12:05:04;;;;;;;;;;;15.10;61.80;;;;;;6161122;23;20280;-77
2022/02/19 12:07:51;;;;;;;;;;;15.10;62.00;;;;;;6161212;23;20230;-76
2022/02/19 12:10:18;;;;;;;;;;;15.20;61.20;;;;;;6163751;23;19982;-78
2022/02/19 12:13:03;;;;;;;;;;;15.40;62.20;;;;;;6163392;23;19916;-79
2022/02/19 12:15:30;;;;;;;;;;;15.60;61.50;;;;;;6187456;23;20439;-78
2022/02/19 12:17:57;;;;;;;;;;;15.60;60.80;;;;;;6188712;23;19916;-76
2022/02/19 12:20:26;;;;;;;;;;;15.30;60.00;;;;;;6164734;23;20293;-76
2022/02/19 12:22:54;;;;;;;;;;;15.20;60.60;;;;;;6166440;23;20399;-78
2022/02/19 12:25:21;;;;;;;;;;;15.20;61.60;;;;;;6163242;23;20241;-76
2022/02/19 12:28:08;;;;;;;;;;;15.00;60.90;;;;;;6162392;23;20297;-76
2022/02/19 12:30:35;;;;;;;;;;;15.10;61.90;;;;;;6189174;23;19917;-76
2022/02/19 12:33:02;;;;;;;;;;;15.20;62.40;;;;;;6165028;23;19916;-76
2022/02/19 12:35:34;;;;;;;;;;;15.30;61.30;;;;;;6188860;23;20293;-76
2022/02/19 12:38:02;;;;;;;;;;;15.40;61.20;;;;;;6162064;23;19916;-79
2022/02/19 12:40:31;;;;;;;;;;;15.40;61.20;;;;;;6161084;23;19923;-76
2022/02/19 12:42:58;;;;;;;;;;;15.30;60.50;;;;;;6161882;23;20356;-79
2022/02/19 12:45:25;;;;;;;;;;;15.20;60.50;;;;;;6162307;23;19990;-79
2022/02/19 12:47:52;;;;;;;;;;;15.10;61.30;;;;;;6164264;23;19967;-77
2022/02/19 12:50:19;;;;;;;;;;;15.20;61.50;;;;;;6163037;23;19922;-79
2022/02/19 12:52:48;;;;;;;;;;;15.30;60.80;;;;;;6166575;23;20257;-78
2022/02/19 12:55:17;;;;;;;;;;;15.40;60.30;;;;;;6162434;23;20404;-78
2022/02/19 12:57:59;;;;;;;;;;;15.40;60.30;;;;;;6160989;23;19924;-76
2022/02/19 13:00:26;;;;;;;;;;;15.50;60.80;;;;;;6188596;23;20321;-76
2022/02/19 13:02:57;;;;;;;;;;;15.40;60.40;;;;;;6186287;23;19952;-78
2022/02/19 13:05:24;;;;;;;;;;;15.30;60.20;;;;;;6161153;23;19916;-78
2022/02/19 13:07:51;;;;;;;;;;;15.30;60.70;;;;;;6188551;23;19995;-76
2022/02/19 13:10:22;;;;;;;;;;;15.50;60.80;;;;;;6163294;23;19923;-78
2022/02/19 13:12:49;;;;;;;;;;;15.60;60.50;;;;;;6198543;23;19916;-78
2022/02/19 13:15:16;;;;;;;;;;;15.60;59.70;;;;;;6167158;23;19970;-76
2022/02/19 13:17:44;;;;;;;;;;;15.50;60.00;;;;;;6196815;23;20405;-79
2022/02/19 13:20:12;;;;;;;;;;;15.50;60.50;;;;;;6191615;23;19920;-78
2022/02/19 13:22:40;;;;;;;;;;;15.40;60.00;;;;;;6164962;23;19916;-79
2022/02/19 13:25:11;;;;;;;;;;;15.30;60.30;;;;;;6187705;23;19951;-76
2022/02/19 13:27:39;;;;;;;;;;;15.20;60.60;;;;;;6189898;23;20352;-79
2022/02/19 13:30:09;;;;;;;;;;;15.20;61.20;;;;;;6165192;23;19916;-76
2022/02/19 13:32:56;;;;;;;;;;;15.20;61.10;;;;;;6192228;23;19916;-77
2022/02/19 13:35:24;;;;;;;;;;;15.10;61.40;;;;;;6162442;23;19916;-75
2022/02/19 13:37:52;;;;;;;;;;;15.10;61.30;;;;;;6189734;23;19923;-79
2022/02/19 13:40:20;;;;;;;;;;;15.10;61.30;;;;;;6187838;23;19923;-75
2022/02/19 13:42:49;;;;;;;;;;;15.00;61.70;;;;;;6186689;23;19916;-77
2022/02/19 13:45:29;;;;;;;;;;;15.00;62.40;;;;;;6184690;23;19923;-78
2022/02/19 13:48:00;;;;;;;;;;;14.90;61.90;;;;;;6159837;23;20364;-77
2022/02/19 13:50:33;;;;;;;;;;;14.90;62.10;;;;;;6193660;23;20250;-75
2022/02/19 13:53:07;;;;;;;;;;;14.90;61.70;;;;;;6185423;23;19920;-78
2022/02/19 13:55:35;;;;;;;;;;;14.90;62.50;;;;;;6164742;23;19947;-79
2022/02/19 13:58:12;;;;;;;;;;;14.80;62.10;;;;;;6168502;23;19924;-76
2022/02/19 14:00:40;;;;;;;;;;;14.70;62.40;;;;;;6160854;23;19920;-77
2022/02/19 14:03:07;;;;;;;;;;;14.70;62.90;;;;;;6190489;23;19916;-77
2022/02/19 14:05:36;;;;;;;;;;;14.60;62.70;;;;;;6192754;23;19924;-75
2022/02/19 14:08:02;;;;;;;;;;;14.60;63.20;;;;;;6192784;23;19939;-79
2022/02/19 14:10:29;;;;;;;;;;;14.50;63.40;;;;;;6162914;23;20388;-78
2022/02/19 14:13:05;;;;;;;;;;;14.50;63.80;;;;;;6163516;23;20341;-77
2022/02/19 14:15:33;;;;;;;;;;;14.50;63.70;;;;;;6163446;23;19987;-79
2022/02/19 14:18:04;;;;;;;;;;;14.50;64.50;;;;;;6191458;23;20250;-75
2022/02/19 14:20:38;;;;;;;;;;;14.50;64.40;;;;;;6189664;23;19927;-79
2022/02/19 14:23:31;;;;;;;;;;;14.60;64.20;;;;;;6170604;23;19920;-78
2022/02/19 14:25:58;;;;;;;;;;;14.50;64.30;;;;;;6182570;23;19916;-77
2022/02/19 14:28:28;;;;;;;;;;;14.50;63.90;;;;;;6175071;23;19920;-78